powered by Meteolive.it
Dati meteo   Attuali  Passati Ogni 3 ore 7 Giorni 15 Giorni Avvisi Meteo Mappe meteo
Roma / Urbe, Italy
Alba: 7:02 AM UTC1
Tramonto: 5:44 PM UTC1
 Lat: 41.95N, Lon: 12.50E
ICAO Usato: LIRU
Condizioni Meteo Attuali Aggiornate: 18.02.2018 alle 17:50 LT
Coperto
Coperto
Coperto
N/D
Temp: 11°C
Umidita': 87%
Direz/Vel. Vento: E 05 KTS raffiche
Pressione: 1014 hPa
Punto di rugiada: 9°C
Temperatura percepita: 11°C
Visibilitą: 6000 m. (buona)
Temperatura percepita in
presenza di vento (Wind Chill)
:
9°C
T. max (ultime 24 ore): 12°C
T. min (ultime 24 ore): 9°C


METAR ORIGINALE
LIRU 181550Z 10005KT 6000 SCT010 BKN040 11/09 Q1014